sensor_id;sensor_type;location;lat;lon;timestamp;temperature;humidity
15262;DHT22;7733;51.554;13.590;2023-05-24T00:02:22;10.90;99.90
15262;DHT22;7733;51.554;13.590;2023-05-24T00:04:51;10.80;99.90
15262;DHT22;7733;51.554;13.590;2023-05-24T00:07:18;10.80;99.90
15262;DHT22;7733;51.554;13.590;2023-05-24T00:09:44;10.80;99.90
15262;DHT22;7733;51.554;13.590;2023-05-24T00:12:10;10.80;99.90
15262;DHT22;7733;51.554;13.590;2023-05-24T00:14:35;10.80;99.90
15262;DHT22;7733;51.554;13.590;2023-05-24T00:17:01;10.80;99.90
15262;DHT22;7733;51.554;13.590;2023-05-24T00:19:27;10.70;99.90
15262;DHT22;7733;51.554;13.590;2023-05-24T00:21:53;10.70;99.90
15262;DHT22;7733;51.554;13.590;2023-05-24T00:24:19;10.70;99.90
15262;DHT22;7733;51.554;13.590;2023-05-24T00:26:45;10.70;99.90
15262;DHT22;7733;51.554;13.590;2023-05-24T00:29:12;10.70;99.90
15262;DHT22;7733;51.554;13.590;2023-05-24T00:31:38;10.60;99.90
15262;DHT22;7733;51.554;13.590;2023-05-24T00:34:04;10.60;99.90
15262;DHT22;7733;51.554;13.590;2023-05-24T00:36:30;10.60;99.90
15262;DHT22;7733;51.554;13.590;2023-05-24T00:38:57;10.60;99.90
15262;DHT22;7733;51.554;13.590;2023-05-24T00:41:23;10.70;99.90
15262;DHT22;7733;51.554;13.590;2023-05-24T00:43:49;10.80;99.90
15262;DHT22;7733;51.554;13.590;2023-05-24T00:46:37;10.80;99.90
15262;DHT22;7733;51.554;13.590;2023-05-24T00:49:04;10.60;99.90
15262;DHT22;7733;51.554;13.590;2023-05-24T00:51:30;10.60;99.90
15262;DHT22;7733;51.554;13.590;2023-05-24T00:53:58;10.50;99.90
15262;DHT22;7733;51.554;13.590;2023-05-24T00:56:24;10.40;99.90
15262;DHT22;7733;51.554;13.590;2023-05-24T00:58:51;10.40;99.90
15262;DHT22;7733;51.554;13.590;2023-05-24T01:01:20;10.40;99.90
15262;DHT22;7733;51.554;13.590;2023-05-24T01:03:51;10.40;99.90
15262;DHT22;7733;51.554;13.590;2023-05-24T01:06:18;10.30;99.90
15262;DHT22;7733;51.554;13.590;2023-05-24T01:14:52;10.10;99.90
15262;DHT22;7733;51.554;13.590;2023-05-24T01:20:20;10.10;99.90
15262;DHT22;7733;51.554;13.590;2023-05-24T01:26:36;10.00;99.90
15262;DHT22;7733;51.554;13.590;2023-05-24T01:29:09;10.10;99.90
15262;DHT22;7733;51.554;13.590;2023-05-24T01:31:36;10.10;99.90
15262;DHT22;7733;51.554;13.590;2023-05-24T01:34:02;10.00;99.90
15262;DHT22;7733;51.554;13.590;2023-05-24T01:36:28;10.00;99.90
15262;DHT22;7733;51.554;13.590;2023-05-24T01:38:54;10.00;99.90
15262;DHT22;7733;51.554;13.590;2023-05-24T01:47:43;10.00;99.90
15262;DHT22;7733;51.554;13.590;2023-05-24T01:50:23;9.90;99.90
15262;DHT22;7733;51.554;13.590;2023-05-24T01:52:53;10.10;99.90
15262;DHT22;7733;51.554;13.590;2023-05-24T01:55:23;10.00;99.90
15262;DHT22;7733;51.554;13.590;2023-05-24T01:57:53;9.90;99.90
15262;DHT22;7733;51.554;13.590;2023-05-24T02:00:25;9.90;99.90
15262;DHT22;7733;51.554;13.590;2023-05-24T02:02:51;9.80;99.90
15262;DHT22;7733;51.554;13.590;2023-05-24T02:05:17;9.90;99.90
15262;DHT22;7733;51.554;13.590;2023-05-24T02:07:43;9.80;99.90
15262;DHT22;7733;51.554;13.590;2023-05-24T02:10:09;9.80;99.90
15262;DHT22;7733;51.554;13.590;2023-05-24T02:12:35;9.80;99.90
15262;DHT22;7733;51.554;13.590;2023-05-24T02:15:00;9.80;99.90
15262;DHT22;7733;51.554;13.590;2023-05-24T02:17:26;9.70;99.90
15262;DHT22;7733;51.554;13.590;2023-05-24T02:19:52;9.70;99.90
15262;DHT22;7733;51.554;13.590;2023-05-24T02:22:18;9.70;99.90
15262;DHT22;7733;51.554;13.590;2023-05-24T02:24:47;9.60;99.90
15262;DHT22;7733;51.554;13.590;2023-05-24T02:27:12;9.60;99.90
15262;DHT22;7733;51.554;13.590;2023-05-24T02:29:38;9.60;99.90
15262;DHT22;7733;51.554;13.590;2023-05-24T02:32:06;9.60;99.90
15262;DHT22;7733;51.554;13.590;2023-05-24T02:34:32;9.60;99.90
15262;DHT22;7733;51.554;13.590;2023-05-24T02:36:57;9.50;99.90
15262;DHT22;7733;51.554;13.590;2023-05-24T02:39:23;9.50;99.90
15262;DHT22;7733;51.554;13.590;2023-05-24T02:41:49;9.50;99.90
15262;DHT22;7733;51.554;13.590;2023-05-24T02:44:15;9.40;99.90
15262;DHT22;7733;51.554;13.590;2023-05-24T02:46:40;9.40;99.90
15262;DHT22;7733;51.554;13.590;2023-05-24T02:49:06;9.40;99.90
15262;DHT22;7733;51.554;13.590;2023-05-24T02:51:32;9.40;99.90
15262;DHT22;7733;51.554;13.590;2023-05-24T02:53:58;9.40;99.90
15262;DHT22;7733;51.554;13.590;2023-05-24T02:56:23;9.40;99.90
15262;DHT22;7733;51.554;13.590;2023-05-24T02:58:51;9.40;99.90
15262;DHT22;7733;51.554;13.590;2023-05-24T03:01:19;9.30;99.90
15262;DHT22;7733;51.554;13.590;2023-05-24T03:03:47;9.40;99.90
15262;DHT22;7733;51.554;13.590;2023-05-24T03:06:13;9.30;99.90
15262;DHT22;7733;51.554;13.590;2023-05-24T03:08:40;9.20;99.90
15262;DHT22;7733;51.554;13.590;2023-05-24T03:11:06;9.20;99.90
15262;DHT22;7733;51.554;13.590;2023-05-24T03:13:32;9.10;99.90
15262;DHT22;7733;51.554;13.590;2023-05-24T03:15:58;9.20;99.90
15262;DHT22;7733;51.554;13.590;2023-05-24T03:18:23;9.20;99.90
15262;DHT22;7733;51.554;13.590;2023-05-24T03:20:49;9.10;99.90
15262;DHT22;7733;51.554;13.590;2023-05-24T03:23:15;9.10;99.90
15262;DHT22;7733;51.554;13.590;2023-05-24T03:25:41;9.10;99.90
15262;DHT22;7733;51.554;13.590;2023-05-24T03:28:07;9.10;99.90
15262;DHT22;7733;51.554;13.590;2023-05-24T03:30:33;9.10;99.90
15262;DHT22;7733;51.554;13.590;2023-05-24T03:32:59;9.10;99.90
15262;DHT22;7733;51.554;13.590;2023-05-24T03:35:25;9.10;99.90
15262;DHT22;7733;51.554;13.590;2023-05-24T03:37:51;9.00;99.90
15262;DHT22;7733;51.554;13.590;2023-05-24T03:40:18;8.90;99.90
15262;DHT22;7733;51.554;13.590;2023-05-24T03:42:43;9.00;99.90
15262;DHT22;7733;51.554;13.590;2023-05-24T03:45:09;9.10;99.90
15262;DHT22;7733;51.554;13.590;2023-05-24T03:47:35;9.10;99.90
15262;DHT22;7733;51.554;13.590;2023-05-24T03:50:01;9.10;99.90
15262;DHT22;7733;51.554;13.590;2023-05-24T03:52:26;9.20;99.90
15262;DHT22;7733;51.554;13.590;2023-05-24T03:54:52;9.20;99.90
15262;DHT22;7733;51.554;13.590;2023-05-24T03:57:18;9.10;99.90
15262;DHT22;7733;51.554;13.590;2023-05-24T03:59:44;9.10;99.90
15262;DHT22;7733;51.554;13.590;2023-05-24T04:02:10;8.90;99.90
15262;DHT22;7733;51.554;13.590;2023-05-24T04:04:35;8.80;99.90
15262;DHT22;7733;51.554;13.590;2023-05-24T04:07:01;8.90;99.90
15262;DHT22;7733;51.554;13.590;2023-05-24T04:09:27;9.10;99.90
15262;DHT22;7733;51.554;13.590;2023-05-24T04:11:53;9.20;99.90
15262;DHT22;7733;51.554;13.590;2023-05-24T04:14:19;9.10;99.90
15262;DHT22;7733;51.554;13.590;2023-05-24T04:16:45;9.00;99.90
15262;DHT22;7733;51.554;13.590;2023-05-24T04:19:11;9.00;99.90
15262;DHT22;7733;51.554;13.590;2023-05-24T04:21:37;8.90;99.90
15262;DHT22;7733;51.554;13.590;2023-05-24T04:24:04;8.90;99.90
15262;DHT22;7733;51.554;13.590;2023-05-24T04:26:30;8.90;99.90
15262;DHT22;7733;51.554;13.590;2023-05-24T04:28:58;8.90;99.90
15262;DHT22;7733;51.554;13.590;2023-05-24T04:31:24;8.90;99.90
15262;DHT22;7733;51.554;13.590;2023-05-24T04:33:53;9.00;99.90
15262;DHT22;7733;51.554;13.590;2023-05-24T04:36:20;9.10;99.90
15262;DHT22;7733;51.554;13.590;2023-05-24T04:38:47;9.20;99.90
15262;DHT22;7733;51.554;13.590;2023-05-24T04:41:13;9.20;99.90
15262;DHT22;7733;51.554;13.590;2023-05-24T04:43:39;9.20;99.90
15262;DHT22;7733;51.554;13.590;2023-05-24T04:46:05;9.30;99.90
15262;DHT22;7733;51.554;13.590;2023-05-24T04:48:31;9.30;99.90
15262;DHT22;7733;51.554;13.590;2023-05-24T04:50:57;9.30;99.90
15262;DHT22;7733;51.554;13.590;2023-05-24T04:53:23;9.40;99.90
15262;DHT22;7733;51.554;13.590;2023-05-24T04:55:50;9.50;99.90
15262;DHT22;7733;51.554;13.590;2023-05-24T04:58:16;9.50;99.90
15262;DHT22;7733;51.554;13.590;2023-05-24T05:00:43;9.50;99.90
15262;DHT22;7733;51.554;13.590;2023-05-24T05:03:09;9.50;99.90
15262;DHT22;7733;51.554;13.590;2023-05-24T05:05:35;9.60;99.90
15262;DHT22;7733;51.554;13.590;2023-05-24T05:08:01;9.60;99.90
15262;DHT22;7733;51.554;13.590;2023-05-24T05:10:28;9.70;99.90
15262;DHT22;7733;51.554;13.590;2023-05-24T05:12:54;9.60;99.90
15262;DHT22;7733;51.554;13.590;2023-05-24T05:15:22;9.70;99.90
15262;DHT22;7733;51.554;13.590;2023-05-24T05:17:48;9.80;99.90
15262;DHT22;7733;51.554;13.590;2023-05-24T05:20:14;9.70;99.90
15262;DHT22;7733;51.554;13.590;2023-05-24T05:22:47;9.60;99.90
15262;DHT22;7733;51.554;13.590;2023-05-24T05:25:13;9.60;99.90
15262;DHT22;7733;51.554;13.590;2023-05-24T05:27:39;9.60;99.90
15262;DHT22;7733;51.554;13.590;2023-05-24T05:30:06;9.70;99.90
15262;DHT22;7733;51.554;13.590;2023-05-24T05:32:32;9.70;99.90
15262;DHT22;7733;51.554;13.590;2023-05-24T05:34:58;9.70;99.90
15262;DHT22;7733;51.554;13.590;2023-05-24T05:37:24;9.80;99.90
15262;DHT22;7733;51.554;13.590;2023-05-24T05:39:49;9.80;99.90
15262;DHT22;7733;51.554;13.590;2023-05-24T05:42:15;9.80;99.90
15262;DHT22;7733;51.554;13.590;2023-05-24T05:44:41;9.80;99.90
15262;DHT22;7733;51.554;13.590;2023-05-24T05:47:07;9.70;99.90
15262;DHT22;7733;51.554;13.590;2023-05-24T05:49:33;9.70;99.90
15262;DHT22;7733;51.554;13.590;2023-05-24T05:52:05;9.80;99.90
15262;DHT22;7733;51.554;13.590;2023-05-24T05:54:31;9.80;99.90
15262;DHT22;7733;51.554;13.590;2023-05-24T05:56:58;9.70;99.90
15262;DHT22;7733;51.554;13.590;2023-05-24T05:59:24;9.70;99.90
15262;DHT22;7733;51.554;13.590;2023-05-24T06:01:50;9.70;99.90
15262;DHT22;7733;51.554;13.590;2023-05-24T06:04:16;9.70;99.90
15262;DHT22;7733;51.554;13.590;2023-05-24T06:06:42;9.70;99.90
15262;DHT22;7733;51.554;13.590;2023-05-24T06:09:14;9.70;99.90
15262;DHT22;7733;51.554;13.590;2023-05-24T06:11:41;9.70;99.90
15262;DHT22;7733;51.554;13.590;2023-05-24T06:14:13;9.80;99.90
15262;DHT22;7733;51.554;13.590;2023-05-24T06:16:49;9.70;99.90
15262;DHT22;7733;51.554;13.590;2023-05-24T06:19:17;9.80;99.90
15262;DHT22;7733;51.554;13.590;2023-05-24T06:21:43;9.80;99.90
15262;DHT22;7733;51.554;13.590;2023-05-24T06:24:17;9.80;99.90
15262;DHT22;7733;51.554;13.590;2023-05-24T06:26:47;9.90;99.90
15262;DHT22;7733;51.554;13.590;2023-05-24T06:29:14;9.80;99.90
15262;DHT22;7733;51.554;13.590;2023-05-24T06:31:40;9.90;99.90
15262;DHT22;7733;51.554;13.590;2023-05-24T06:34:06;10.00;99.90
15262;DHT22;7733;51.554;13.590;2023-05-24T06:36:32;9.90;99.90
15262;DHT22;7733;51.554;13.590;2023-05-24T06:39:00;9.90;99.90
15262;DHT22;7733;51.554;13.590;2023-05-24T06:41:26;10.10;99.90
15262;DHT22;7733;51.554;13.590;2023-05-24T06:43:52;10.10;99.90
15262;DHT22;7733;51.554;13.590;2023-05-24T06:46:18;10.10;99.90
15262;DHT22;7733;51.554;13.590;2023-05-24T06:48:44;9.90;99.90
15262;DHT22;7733;51.554;13.590;2023-05-24T06:51:10;10.00;99.90
15262;DHT22;7733;51.554;13.590;2023-05-24T06:53:35;10.00;99.90
15262;DHT22;7733;51.554;13.590;2023-05-24T06:56:01;10.00;99.90
15262;DHT22;7733;51.554;13.590;2023-05-24T06:58:27;10.00;99.90
15262;DHT22;7733;51.554;13.590;2023-05-24T07:00:53;10.10;99.90
15262;DHT22;7733;51.554;13.590;2023-05-24T07:03:18;10.10;99.90
15262;DHT22;7733;51.554;13.590;2023-05-24T07:05:44;10.10;99.90
15262;DHT22;7733;51.554;13.590;2023-05-24T07:08:10;10.10;99.90
15262;DHT22;7733;51.554;13.590;2023-05-24T07:10:36;10.20;99.90
15262;DHT22;7733;51.554;13.590;2023-05-24T07:13:01;10.30;99.90
15262;DHT22;7733;51.554;13.590;2023-05-24T07:15:29;10.40;99.90
15262;DHT22;7733;51.554;13.590;2023-05-24T07:17:54;10.20;99.90
15262;DHT22;7733;51.554;13.590;2023-05-24T07:20:20;10.30;99.90
15262;DHT22;7733;51.554;13.590;2023-05-24T07:22:46;10.30;99.90
15262;DHT22;7733;51.554;13.590;2023-05-24T07:25:12;10.40;99.90
15262;DHT22;7733;51.554;13.590;2023-05-24T07:27:37;10.40;99.90
15262;DHT22;7733;51.554;13.590;2023-05-24T07:30:04;10.50;99.90
15262;DHT22;7733;51.554;13.590;2023-05-24T07:32:31;10.50;99.90
15262;DHT22;7733;51.554;13.590;2023-05-24T07:34:58;10.40;99.90
15262;DHT22;7733;51.554;13.590;2023-05-24T07:37:24;10.40;99.90
15262;DHT22;7733;51.554;13.590;2023-05-24T07:39:50;10.40;99.90
15262;DHT22;7733;51.554;13.590;2023-05-24T07:42:16;10.60;99.90
15262;DHT22;7733;51.554;13.590;2023-05-24T07:44:42;10.60;99.90
15262;DHT22;7733;51.554;13.590;2023-05-24T07:47:07;10.60;99.90
15262;DHT22;7733;51.554;13.590;2023-05-24T07:49:33;10.70;99.90
15262;DHT22;7733;51.554;13.590;2023-05-24T07:51:59;10.60;99.90
15262;DHT22;7733;51.554;13.590;2023-05-24T07:54:25;10.60;99.90
15262;DHT22;7733;51.554;13.590;2023-05-24T07:56:51;10.80;99.90
15262;DHT22;7733;51.554;13.590;2023-05-24T07:59:17;10.70;99.90
15262;DHT22;7733;51.554;13.590;2023-05-24T08:01:43;10.80;99.90
15262;DHT22;7733;51.554;13.590;2023-05-24T08:04:09;11.00;99.90
15262;DHT22;7733;51.554;13.590;2023-05-24T08:06:35;11.00;99.90
15262;DHT22;7733;51.554;13.590;2023-05-24T08:09:02;10.90;99.90
15262;DHT22;7733;51.554;13.590;2023-05-24T08:11:28;11.00;99.90
15262;DHT22;7733;51.554;13.590;2023-05-24T08:13:54;11.10;99.90
15262;DHT22;7733;51.554;13.590;2023-05-24T08:16:20;11.00;99.90
15262;DHT22;7733;51.554;13.590;2023-05-24T08:18:46;10.90;99.90
15262;DHT22;7733;51.554;13.590;2023-05-24T08:21:12;11.00;99.90
15262;DHT22;7733;51.554;13.590;2023-05-24T08:23:37;11.10;99.90
15262;DHT22;7733;51.554;13.590;2023-05-24T08:26:03;11.20;99.90
15262;DHT22;7733;51.554;13.590;2023-05-24T08:28:29;11.30;99.90
15262;DHT22;7733;51.554;13.590;2023-05-24T08:30:55;11.40;99.90
15262;DHT22;7733;51.554;13.590;2023-05-24T08:33:21;11.20;99.90
15262;DHT22;7733;51.554;13.590;2023-05-24T08:35:50;11.20;99.90
15262;DHT22;7733;51.554;13.590;2023-05-24T08:38:17;11.20;99.90
15262;DHT22;7733;51.554;13.590;2023-05-24T08:40:43;11.30;99.90
15262;DHT22;7733;51.554;13.590;2023-05-24T08:43:09;11.30;99.90
15262;DHT22;7733;51.554;13.590;2023-05-24T08:45:37;11.30;99.90
15262;DHT22;7733;51.554;13.590;2023-05-24T08:48:07;11.30;99.90
15262;DHT22;7733;51.554;13.590;2023-05-24T08:50:34;11.40;99.90
15262;DHT22;7733;51.554;13.590;2023-05-24T08:53:00;11.40;99.90
15262;DHT22;7733;51.554;13.590;2023-05-24T08:55:30;11.50;99.90
15262;DHT22;7733;51.554;13.590;2023-05-24T08:57:56;11.60;99.90
15262;DHT22;7733;51.554;13.590;2023-05-24T09:00:24;11.70;99.90
15262;DHT22;7733;51.554;13.590;2023-05-24T09:02:50;11.50;99.90
15262;DHT22;7733;51.554;13.590;2023-05-24T09:05:18;11.60;99.90
15262;DHT22;7733;51.554;13.590;2023-05-24T09:07:47;11.40;99.90
15262;DHT22;7733;51.554;13.590;2023-05-24T09:10:18;11.70;99.90
15262;DHT22;7733;51.554;13.590;2023-05-24T09:12:52;11.80;99.90
15262;DHT22;7733;51.554;13.590;2023-05-24T09:15:22;11.80;99.90
15262;DHT22;7733;51.554;13.590;2023-05-24T09:17:48;12.20;99.90
15262;DHT22;7733;51.554;13.590;2023-05-24T09:20:14;12.40;99.90
15262;DHT22;7733;51.554;13.590;2023-05-24T09:22:41;12.50;99.90
15262;DHT22;7733;51.554;13.590;2023-05-24T09:25:07;12.50;99.90
15262;DHT22;7733;51.554;13.590;2023-05-24T09:27:35;12.40;99.90
15262;DHT22;7733;51.554;13.590;2023-05-24T09:30:02;12.40;99.90
15262;DHT22;7733;51.554;13.590;2023-05-24T09:32:30;12.40;99.90
15262;DHT22;7733;51.554;13.590;2023-05-24T09:34:57;12.70;99.90
15262;DHT22;7733;51.554;13.590;2023-05-24T09:37:25;12.70;99.90
15262;DHT22;7733;51.554;13.590;2023-05-24T09:39:52;12.70;99.90
15262;DHT22;7733;51.554;13.590;2023-05-24T09:42:21;12.70;99.90
15262;DHT22;7733;51.554;13.590;2023-05-24T09:45:01;13.10;99.90
15262;DHT22;7733;51.554;13.590;2023-05-24T09:47:35;12.90;99.90
15262;DHT22;7733;51.554;13.590;2023-05-24T09:50:03;12.70;99.90
15262;DHT22;7733;51.554;13.590;2023-05-24T09:52:31;12.80;99.90
15262;DHT22;7733;51.554;13.590;2023-05-24T09:55:19;12.70;99.90
15262;DHT22;7733;51.554;13.590;2023-05-24T09:58:02;12.90;99.90
15262;DHT22;7733;51.554;13.590;2023-05-24T10:00:37;13.10;99.90
15262;DHT22;7733;51.554;13.590;2023-05-24T10:03:07;13.10;99.90
15262;DHT22;7733;51.554;13.590;2023-05-24T10:05:35;13.30;99.90
15262;DHT22;7733;51.554;13.590;2023-05-24T10:08:02;13.10;99.90
15262;DHT22;7733;51.554;13.590;2023-05-24T10:10:33;13.20;99.90
15262;DHT22;7733;51.554;13.590;2023-05-24T10:13:00;13.20;99.90
15262;DHT22;7733;51.554;13.590;2023-05-24T10:15:27;13.20;99.90
15262;DHT22;7733;51.554;13.590;2023-05-24T10:17:55;13.30;99.90
15262;DHT22;7733;51.554;13.590;2023-05-24T10:20:22;13.00;99.90
15262;DHT22;7733;51.554;13.590;2023-05-24T10:22:59;12.70;99.90
15262;DHT22;7733;51.554;13.590;2023-05-24T10:25:28;13.00;99.90
15262;DHT22;7733;51.554;13.590;2023-05-24T10:28:00;13.30;99.90
15262;DHT22;7733;51.554;13.590;2023-05-24T10:30:47;13.40;99.90
15262;DHT22;7733;51.554;13.590;2023-05-24T10:33:20;13.20;99.90
15262;DHT22;7733;51.554;13.590;2023-05-24T10:35:48;13.30;99.90
15262;DHT22;7733;51.554;13.590;2023-05-24T10:38:15;13.40;99.90
15262;DHT22;7733;51.554;13.590;2023-05-24T10:40:41;13.70;99.90
15262;DHT22;7733;51.554;13.590;2023-05-24T10:43:08;13.50;99.90
15262;DHT22;7733;51.554;13.590;2023-05-24T10:45:40;13.80;99.90
15262;DHT22;7733;51.554;13.590;2023-05-24T10:50:39;13.60;99.90
15262;DHT22;7733;51.554;13.590;2023-05-24T10:53:18;13.80;99.60
15262;DHT22;7733;51.554;13.590;2023-05-24T11:01:31;13.60;99.10
15262;DHT22;7733;51.554;13.590;2023-05-24T11:04:10;14.20;98.40
15262;DHT22;7733;51.554;13.590;2023-05-24T11:06:54;13.70;98.30
15262;DHT22;7733;51.554;13.590;2023-05-24T11:09:23;14.50;97.80
15262;DHT22;7733;51.554;13.590;2023-05-24T11:11:54;14.50;98.00
15262;DHT22;7733;51.554;13.590;2023-05-24T11:14:27;14.00;98.70
15262;DHT22;7733;51.554;13.590;2023-05-24T11:16:56;13.80;99.40
15262;DHT22;7733;51.554;13.590;2023-05-24T11:19:27;14.80;99.20
15262;DHT22;7733;51.554;13.590;2023-05-24T11:21:58;15.40;98.50
15262;DHT22;7733;51.554;13.590;2023-05-24T11:24:26;14.50;96.50
15262;DHT22;7733;51.554;13.590;2023-05-24T11:26:53;14.80;97.10
15262;DHT22;7733;51.554;13.590;2023-05-24T11:29:21;15.10;96.50
15262;DHT22;7733;51.554;13.590;2023-05-24T11:31:57;15.00;96.70
15262;DHT22;7733;51.554;13.590;2023-05-24T11:34:29;15.50;95.70
15262;DHT22;7733;51.554;13.590;2023-05-24T11:36:57;15.60;96.30
15262;DHT22;7733;51.554;13.590;2023-05-24T11:39:31;16.00;94.30
15262;DHT22;7733;51.554;13.590;2023-05-24T11:41:58;15.40;94.00
15262;DHT22;7733;51.554;13.590;2023-05-24T11:44:25;15.50;95.50
15262;DHT22;7733;51.554;13.590;2023-05-24T11:46:57;15.10;94.60
15262;DHT22;7733;51.554;13.590;2023-05-24T11:49:24;15.20;95.20
15262;DHT22;7733;51.554;13.590;2023-05-24T11:51:53;15.70;95.20
15262;DHT22;7733;51.554;13.590;2023-05-24T11:54:24;16.00;95.20
15262;DHT22;7733;51.554;13.590;2023-05-24T11:56:54;16.20;94.50
15262;DHT22;7733;51.554;13.590;2023-05-24T11:59:24;16.20;93.10
15262;DHT22;7733;51.554;13.590;2023-05-24T12:02:02;16.10;92.20
15262;DHT22;7733;51.554;13.590;2023-05-24T12:04:31;16.10;91.90
15262;DHT22;7733;51.554;13.590;2023-05-24T12:06:57;16.00;93.20
15262;DHT22;7733;51.554;13.590;2023-05-24T12:09:23;15.60;93.10
15262;DHT22;7733;51.554;13.590;2023-05-24T12:11:51;15.40;93.20
15262;DHT22;7733;51.554;13.590;2023-05-24T12:14:20;15.70;93.30
15262;DHT22;7733;51.554;13.590;2023-05-24T12:16:48;16.10;93.00
15262;DHT22;7733;51.554;13.590;2023-05-24T12:19:18;16.10;93.10
15262;DHT22;7733;51.554;13.590;2023-05-24T12:21:46;16.40;92.20
15262;DHT22;7733;51.554;13.590;2023-05-24T12:24:15;16.40;90.90
15262;DHT22;7733;51.554;13.590;2023-05-24T12:26:46;16.60;91.70
15262;DHT22;7733;51.554;13.590;2023-05-24T12:29:13;16.60;91.20
15262;DHT22;7733;51.554;13.590;2023-05-24T12:31:41;16.10;90.60
15262;DHT22;7733;51.554;13.590;2023-05-24T12:34:18;16.50;90.70
15262;DHT22;7733;51.554;13.590;2023-05-24T12:36:44;16.60;90.90
15262;DHT22;7733;51.554;13.590;2023-05-24T12:39:22;16.30;91.30
15262;DHT22;7733;51.554;13.590;2023-05-24T12:41:57;16.40;91.00
15262;DHT22;7733;51.554;13.590;2023-05-24T12:44:28;16.40;90.70
15262;DHT22;7733;51.554;13.590;2023-05-24T12:46:56;16.80;90.30
15262;DHT22;7733;51.554;13.590;2023-05-24T12:49:24;17.10;89.80
15262;DHT22;7733;51.554;13.590;2023-05-24T12:51:52;17.70;88.30
15262;DHT22;7733;51.554;13.590;2023-05-24T12:54:26;17.50;87.20
15262;DHT22;7733;51.554;13.590;2023-05-24T12:56:53;17.00;88.70
15262;DHT22;7733;51.554;13.590;2023-05-24T12:59:20;17.50;89.00
15262;DHT22;7733;51.554;13.590;2023-05-24T13:01:46;18.10;87.00
15262;DHT22;7733;51.554;13.590;2023-05-24T13:04:17;17.60;88.40
15262;DHT22;7733;51.554;13.590;2023-05-24T13:06:45;17.50;85.70
15262;DHT22;7733;51.554;13.590;2023-05-24T13:09:12;17.40;86.10
15262;DHT22;7733;51.554;13.590;2023-05-24T13:11:38;17.70;86.70
15262;DHT22;7733;51.554;13.590;2023-05-24T13:14:04;16.70;87.10
15262;DHT22;7733;51.554;13.590;2023-05-24T13:16:30;16.80;88.10
15262;DHT22;7733;51.554;13.590;2023-05-24T13:18:58;16.70;88.00
15262;DHT22;7733;51.554;13.590;2023-05-24T13:21:23;16.70;86.50
15262;DHT22;7733;51.554;13.590;2023-05-24T13:23:49;16.80;88.00
15262;DHT22;7733;51.554;13.590;2023-05-24T13:26:16;16.50;86.30
15262;DHT22;7733;51.554;13.590;2023-05-24T13:28:42;16.80;88.30
15262;DHT22;7733;51.554;13.590;2023-05-24T13:31:08;16.90;87.30
15262;DHT22;7733;51.554;13.590;2023-05-24T13:33:34;17.00;86.20
15262;DHT22;7733;51.554;13.590;2023-05-24T13:36:00;17.30;84.90
15262;DHT22;7733;51.554;13.590;2023-05-24T13:38:26;17.40;83.80
15262;DHT22;7733;51.554;13.590;2023-05-24T13:40:53;17.50;83.30
15262;DHT22;7733;51.554;13.590;2023-05-24T13:43:19;18.30;81.60
15262;DHT22;7733;51.554;13.590;2023-05-24T13:45:45;18.40;80.60
15262;DHT22;7733;51.554;13.590;2023-05-24T13:48:11;18.10;82.10
15262;DHT22;7733;51.554;13.590;2023-05-24T13:50:37;17.80;84.00
15262;DHT22;7733;51.554;13.590;2023-05-24T13:53:04;17.80;86.30
15262;DHT22;7733;51.554;13.590;2023-05-24T13:55:32;17.30;86.90
15262;DHT22;7733;51.554;13.590;2023-05-24T13:57:59;16.90;88.20
15262;DHT22;7733;51.554;13.590;2023-05-24T14:00:26;16.80;87.20
15262;DHT22;7733;51.554;13.590;2023-05-24T14:02:53;16.70;89.10
15262;DHT22;7733;51.554;13.590;2023-05-24T14:05:19;16.90;89.80
15262;DHT22;7733;51.554;13.590;2023-05-24T14:07:46;17.10;88.50
15262;DHT22;7733;51.554;13.590;2023-05-24T14:10:12;17.40;85.50
15262;DHT22;7733;51.554;13.590;2023-05-24T14:12:38;17.80;85.10
15262;DHT22;7733;51.554;13.590;2023-05-24T14:15:05;17.50;84.00
15262;DHT22;7733;51.554;13.590;2023-05-24T14:17:31;17.70;85.60
15262;DHT22;7733;51.554;13.590;2023-05-24T14:19:57;17.80;84.60
15262;DHT22;7733;51.554;13.590;2023-05-24T14:22:23;18.00;83.60
15262;DHT22;7733;51.554;13.590;2023-05-24T14:24:50;18.40;81.80
15262;DHT22;7733;51.554;13.590;2023-05-24T14:27:17;18.30;81.30
15262;DHT22;7733;51.554;13.590;2023-05-24T14:29:43;18.40;82.40
15262;DHT22;7733;51.554;13.590;2023-05-24T14:32:09;18.90;81.60
15262;DHT22;7733;51.554;13.590;2023-05-24T14:34:35;18.90;80.80
15262;DHT22;7733;51.554;13.590;2023-05-24T14:37:02;18.60;80.00
15262;DHT22;7733;51.554;13.590;2023-05-24T14:39:28;18.50;79.20
15262;DHT22;7733;51.554;13.590;2023-05-24T14:41:54;18.10;79.30
15262;DHT22;7733;51.554;13.590;2023-05-24T14:44:19;17.80;79.20
15262;DHT22;7733;51.554;13.590;2023-05-24T14:46:45;18.50;79.20
15262;DHT22;7733;51.554;13.590;2023-05-24T14:49:11;19.40;78.30
15262;DHT22;7733;51.554;13.590;2023-05-24T14:51:37;19.70;77.70
15262;DHT22;7733;51.554;13.590;2023-05-24T14:54:03;19.80;79.40
15262;DHT22;7733;51.554;13.590;2023-05-24T14:56:29;19.70;79.40
15262;DHT22;7733;51.554;13.590;2023-05-24T14:58:56;18.80;81.20
15262;DHT22;7733;51.554;13.590;2023-05-24T15:01:22;18.30;81.40
15262;DHT22;7733;51.554;13.590;2023-05-24T15:03:48;17.90;82.20
15262;DHT22;7733;51.554;13.590;2023-05-24T15:06:14;17.60;84.40
15262;DHT22;7733;51.554;13.590;2023-05-24T15:08:40;17.20;84.60
15262;DHT22;7733;51.554;13.590;2023-05-24T15:11:05;17.30;85.90
15262;DHT22;7733;51.554;13.590;2023-05-24T15:13:32;17.80;84.30
15262;DHT22;7733;51.554;13.590;2023-05-24T15:15:58;17.80;82.70
15262;DHT22;7733;51.554;13.590;2023-05-24T15:18:25;17.70;83.20
15262;DHT22;7733;51.554;13.590;2023-05-24T15:20:53;18.20;81.60
15262;DHT22;7733;51.554;13.590;2023-05-24T15:23:20;18.40;80.20
15262;DHT22;7733;51.554;13.590;2023-05-24T15:25:46;18.00;81.20
15262;DHT22;7733;51.554;13.590;2023-05-24T15:28:12;17.90;82.70
15262;DHT22;7733;51.554;13.590;2023-05-24T15:30:41;17.40;83.80
15262;DHT22;7733;51.554;13.590;2023-05-24T15:33:12;17.60;83.40
15262;DHT22;7733;51.554;13.590;2023-05-24T15:35:38;17.80;82.70
15262;DHT22;7733;51.554;13.590;2023-05-24T15:38:05;17.70;81.60
15262;DHT22;7733;51.554;13.590;2023-05-24T15:40:30;17.60;82.20
15262;DHT22;7733;51.554;13.590;2023-05-24T15:42:56;18.00;81.60
15262;DHT22;7733;51.554;13.590;2023-05-24T15:45:22;18.20;80.80
15262;DHT22;7733;51.554;13.590;2023-05-24T15:47:48;18.10;82.30
15262;DHT22;7733;51.554;13.590;2023-05-24T15:50:14;17.70;82.60
15262;DHT22;7733;51.554;13.590;2023-05-24T15:52:40;18.00;83.70
15262;DHT22;7733;51.554;13.590;2023-05-24T15:55:06;18.40;80.90
15262;DHT22;7733;51.554;13.590;2023-05-24T15:57:32;18.10;80.60
15262;DHT22;7733;51.554;13.590;2023-05-24T15:59:58;18.20;81.60
15262;DHT22;7733;51.554;13.590;2023-05-24T16:02:25;18.30;81.40
15262;DHT22;7733;51.554;13.590;2023-05-24T16:04:51;18.20;81.80